Time;durP1;ratioP1;P1;durP2;ratioP2;P2;SDS_P1;SDS_P2;PMS_P1;PMS_P2;Temp;Humidity;BMP_temperature;BMP_pressure;BME280_temperature;BME280_humidity;BME280_pressure;Samples;Min_cycle;Max_cycle;Signal;HPM_P1;HPM_P2
2023/07/14 00:00:17;;;;;;;24.10;10.38;;;;;;;;;;5085671;28;20584;-81
2023/07/14 00:02:46;;;;;;;11.75;9.30;;;;;;;;;;5106925;28;20215;-81
2023/07/14 00:05:18;;;;;;;10.82;9.77;;;;;;;;;;5102485;28;20265;-81
2023/07/14 00:07:48;;;;;;;14.18;9.02;;;;;;;;;;5072939;28;20270;-81
2023/07/14 00:10:19;;;;;;;12.13;8.88;;;;;;;;;;5102305;28;20200;-81
2023/07/14 00:12:46;;;;;;;10.95;9.23;;;;;;;;;;5092484;28;20211;-81
2023/07/14 00:15:34;;;;;;;10.43;9.40;;;;;;;;;;5111231;28;20203;-81
2023/07/14 00:18:11;;;;;;;10.48;8.45;;;;;;;;;;5102828;28;20632;-81
2023/07/14 00:20:38;;;;;;;14.32;9.98;;;;;;;;;;5075548;28;20212;-81
2023/07/14 00:23:12;;;;;;;10.93;9.82;;;;;;;;;;5092907;28;20203;-80
2023/07/14 00:25:40;;;;;;;11.27;9.05;;;;;;;;;;5097818;28;20199;-81
2023/07/14 00:28:15;;;;;;;10.77;9.68;;;;;;;;;;5109050;28;20207;-81
2023/07/14 00:30:43;;;;;;;9.35;8.50;;;;;;;;;;5106390;28;20207;-81
2023/07/14 00:33:13;;;;;;;11.88;9.38;;;;;;;;;;5090283;28;20213;-81
2023/07/14 00:35:41;;;;;;;10.65;9.55;;;;;;;;;;5104530;28;20206;-81
2023/07/14 00:38:10;;;;;;;11.30;9.30;;;;;;;;;;5081747;28;20291;-81
2023/07/14 00:40:40;;;;;;;10.65;9.65;;;;;;;;;;5073051;28;20208;-81
2023/07/14 00:43:11;;;;;;;20.05;9.90;;;;;;;;;;5104213;28;20751;-81
2023/07/14 00:45:38;;;;;;;11.35;9.27;;;;;;;;;;5072737;28;20221;-81
2023/07/14 00:48:09;;;;;;;9.85;8.93;;;;;;;;;;5091268;28;20207;-81
2023/07/14 00:50:40;;;;;;;11.07;9.88;;;;;;;;;;5103093;28;20594;-81
2023/07/14 00:53:12;;;;;;;10.82;9.73;;;;;;;;;;5103539;28;20222;-81
2023/07/14 00:55:42;;;;;;;12.20;9.77;;;;;;;;;;5100894;28;20200;-81
2023/07/14 00:58:18;;;;;;;10.80;9.80;;;;;;;;;;5096729;28;20200;-81
2023/07/14 01:01:05;;;;;;;10.82;9.52;;;;;;;;;;5098782;28;20270;-81
2023/07/14 01:03:39;;;;;;;10.07;9.20;;;;;;;;;;5090330;28;20222;-81
2023/07/14 01:06:07;;;;;;;12.15;9.50;;;;;;;;;;5089849;28;20218;-81
2023/07/14 01:08:35;;;;;;;10.23;9.27;;;;;;;;;;5105511;28;20224;-81
2023/07/14 01:11:03;;;;;;;10.60;9.40;;;;;;;;;;5080126;28;20203;-81
2023/07/14 01:13:31;;;;;;;12.13;10.02;;;;;;;;;;5104701;28;20578;-81
2023/07/14 01:15:58;;;;;;;10.63;9.38;;;;;;;;;;5089500;28;20197;-81
2023/07/14 01:18:25;;;;;;;10.60;9.60;;;;;;;;;;5070684;28;20707;-81
2023/07/14 01:20:54;;;;;;;8.30;7.63;;;;;;;;;;5114401;28;20191;-81
2023/07/14 01:23:31;;;;;;;10.65;9.55;;;;;;;;;;5075751;28;20212;-81
2023/07/14 01:26:07;;;;;;;11.32;9.90;;;;;;;;;;5108129;28;20230;-81
2023/07/14 01:28:36;;;;;;;9.98;9.02;;;;;;;;;;5093731;28;20667;-81
2023/07/14 01:31:03;;;;;;;11.82;9.82;;;;;;;;;;5050551;28;20207;-81
2023/07/14 01:33:30;;;;;;;10.38;9.20;;;;;;;;;;5096133;28;20702;-81
2023/07/14 01:36:00;;;;;;;13.05;9.70;;;;;;;;;;5106992;28;20743;-81
2023/07/14 01:38:28;;;;;;;25.42;10.80;;;;;;;;;;5107066;28;20209;-80
2023/07/14 01:40:56;;;;;;;11.73;9.80;;;;;;;;;;5076024;28;20208;-81
2023/07/14 01:43:23;;;;;;;12.48;9.63;;;;;;;;;;5091414;28;20211;-81
2023/07/14 01:45:56;;;;;;;10.35;8.90;;;;;;;;;;5114546;28;20207;-81
2023/07/14 01:48:26;;;;;;;11.15;9.32;;;;;;;;;;5090828;28;20290;-80
2023/07/14 01:50:55;;;;;;;9.77;8.80;;;;;;;;;;5098513;28;20230;-81
2023/07/14 01:53:26;;;;;;;10.27;9.43;;;;;;;;;;5102249;28;20204;-81
2023/07/14 01:55:55;;;;;;;10.43;9.38;;;;;;;;;;5064447;28;20253;-81
2023/07/14 01:58:25;;;;;;;11.33;9.73;;;;;;;;;;5101118;28;20200;-81
2023/07/14 02:00:54;;;;;;;11.20;9.80;;;;;;;;;;5107626;28;20196;-81
2023/07/14 02:03:28;;;;;;;11.35;10.23;;;;;;;;;;5058926;28;20207;-81
2023/07/14 02:05:55;;;;;;;11.15;10.10;;;;;;;;;;5093472;28;20196;-81
2023/07/14 02:08:25;;;;;;;11.18;9.40;;;;;;;;;;5089844;28;20207;-81
2023/07/14 02:10:53;;;;;;;11.83;10.07;;;;;;;;;;5087417;28;20675;-82
2023/07/14 02:13:21;;;;;;;13.77;9.27;;;;;;;;;;5058757;28;21036;-81
2023/07/14 02:15:48;;;;;;;11.17;10.20;;;;;;;;;;5102287;28;20226;-81
2023/07/14 02:18:22;;;;;;;10.93;9.30;;;;;;;;;;5077341;28;20583;-81
2023/07/14 02:20:49;;;;;;;12.25;10.07;;;;;;;;;;5095667;28;20218;-81
2023/07/14 02:23:20;;;;;;;11.43;10.25;;;;;;;;;;5066777;28;20209;-81
2023/07/14 02:25:58;;;;;;;11.23;10.13;;;;;;;;;;5113567;28;20253;-81
2023/07/14 02:28:26;;;;;;;10.40;9.40;;;;;;;;;;5099755;28;20204;-81
2023/07/14 02:30:59;;;;;;;12.20;10.83;;;;;;;;;;5077690;28;20281;-81
2023/07/14 02:33:31;;;;;;;11.40;10.23;;;;;;;;;;5113186;28;20203;-81
2023/07/14 02:36:02;;;;;;;12.17;9.63;;;;;;;;;;5092929;28;20211;-82
2023/07/14 02:38:29;;;;;;;13.67;10.27;;;;;;;;;;5089949;28;20203;-82
2023/07/14 02:41:03;;;;;;;12.70;8.50;;;;;;;;;;5092636;28;20205;-80
2023/07/14 02:43:30;;;;;;;10.53;9.20;;;;;;;;;;5078830;28;20191;-80
2023/07/14 02:45:59;;;;;;;10.70;9.63;;;;;;;;;;5078148;28;20195;-80
2023/07/14 02:48:31;;;;;;;10.70;9.70;;;;;;;;;;5101765;28;20668;-79
2023/07/14 02:50:59;;;;;;;11.40;9.33;;;;;;;;;;5092184;28;20274;-79
2023/07/14 02:53:26;;;;;;;12.83;9.87;;;;;;;;;;5104213;28;20211;-79
2023/07/14 02:55:53;;;;;;;12.17;10.27;;;;;;;;;;5075827;28;20205;-79
2023/07/14 02:58:21;;;;;;;10.90;9.87;;;;;;;;;;5104704;28;20253;-78
2023/07/14 03:00:48;;;;;;;11.90;9.93;;;;;;;;;;5074956;28;20722;-79
2023/07/14 03:03:15;;;;;;;12.47;10.77;;;;;;;;;;5087207;28;20260;-79
2023/07/14 03:05:44;;;;;;;27.37;10.83;;;;;;;;;;5105706;28;20212;-79
2023/07/14 03:08:15;;;;;;;10.63;9.50;;;;;;;;;;5103800;28;20634;-79
2023/07/14 03:10:42;;;;;;;12.50;9.80;;;;;;;;;;5094445;28;20698;-79
2023/07/14 03:13:09;;;;;;;12.70;9.67;;;;;;;;;;5098955;28;20204;-79
2023/07/14 03:15:36;;;;;;;11.17;10.07;;;;;;;;;;5111800;28;20252;-79
2023/07/14 03:18:04;;;;;;;11.33;10.27;;;;;;;;;;5094008;28;20208;-79
2023/07/14 03:20:31;;;;;;;13.93;10.37;;;;;;;;;;5077134;28;20673;-78
2023/07/14 03:23:00;;;;;;;11.37;10.17;;;;;;;;;;5093963;28;20204;-79
2023/07/14 03:25:28;;;;;;;11.50;9.83;;;;;;;;;;5105077;28;20586;-79
2023/07/14 03:27:55;;;;;;;11.23;9.47;;;;;;;;;;5087534;28;20669;-79
2023/07/14 03:30:22;;;;;;;11.37;9.23;;;;;;;;;;5110783;28;20223;-79
2023/07/14 03:32:50;;;;;;;10.90;9.23;;;;;;;;;;5094120;28;20207;-80
2023/07/14 03:35:18;;;;;;;12.27;8.90;;;;;;;;;;5077442;28;20292;-81
2023/07/14 03:37:49;;;;;;;11.23;8.87;;;;;;;;;;5083025;28;20209;-81
2023/07/14 03:40:18;;;;;;;10.90;9.03;;;;;;;;;;5087761;28;20192;-81
2023/07/14 03:42:45;;;;;;;12.07;8.97;;;;;;;;;;5080717;28;20210;-80
2023/07/14 03:45:12;;;;;;;12.03;8.87;;;;;;;;;;5110117;28;20196;-81
2023/07/14 03:47:39;;;;;;;9.13;8.23;;;;;;;;;;5082002;28;20211;-83
2023/07/14 03:50:08;;;;;;;12.17;9.13;;;;;;;;;;5105287;28;20235;-80
2023/07/14 03:52:34;;;;;;;12.03;10.33;;;;;;;;;;5073655;28;20215;-81
2023/07/14 03:55:01;;;;;;;11.23;10.20;;;;;;;;;;5104992;28;20211;-82
2023/07/14 03:57:29;;;;;;;10.33;9.33;;;;;;;;;;5091218;28;20204;-79
2023/07/14 03:59:56;;;;;;;11.30;9.87;;;;;;;;;;5092030;28;20204;-78
2023/07/14 04:02:23;;;;;;;11.10;9.97;;;;;;;;;;5104426;28;20204;-79
2023/07/14 04:04:50;;;;;;;11.27;10.07;;;;;;;;;;5091387;28;20196;-78
2023/07/14 04:07:17;;;;;;;11.60;9.37;;;;;;;;;;5102074;28;20200;-79
2023/07/14 04:09:44;;;;;;;13.67;9.97;;;;;;;;;;5111446;28;20230;-79
2023/07/14 04:12:11;;;;;;;12.43;10.73;;;;;;;;;;5109768;28;20199;-79
2023/07/14 04:14:39;;;;;;;11.40;10.20;;;;;;;;;;5101064;28;20234;-79
2023/07/14 04:17:06;;;;;;;14.43;9.57;;;;;;;;;;5090828;28;20208;-79
2023/07/14 04:19:32;;;;;;;10.93;9.67;;;;;;;;;;5105043;28;20261;-78
2023/07/14 04:21:59;;;;;;;14.93;10.77;;;;;;;;;;5090966;28;20705;-78
2023/07/14 04:24:26;;;;;;;11.37;9.10;;;;;;;;;;5104739;28;20207;-78
2023/07/14 04:26:55;;;;;;;20.03;10.13;;;;;;;;;;5104637;28;20196;-78
2023/07/14 04:29:22;;;;;;;9.83;8.73;;;;;;;;;;5097653;28;20199;-78
2023/07/14 04:31:50;;;;;;;13.77;9.37;;;;;;;;;;5108622;28;20199;-79
2023/07/14 04:34:17;;;;;;;13.37;9.73;;;;;;;;;;5109361;28;20206;-79
2023/07/14 04:36:45;;;;;;;13.33;8.50;;;;;;;;;;5103018;28;20212;-78
2023/07/14 04:39:13;;;;;;;11.03;8.87;;;;;;;;;;5092606;28;20203;-78
2023/07/14 04:41:40;;;;;;;14.70;9.53;;;;;;;;;;5109893;28;20208;-79
2023/07/14 04:44:09;;;;;;;14.10;9.60;;;;;;;;;;5096446;28;20694;-79
2023/07/14 04:46:36;;;;;;;11.63;10.03;;;;;;;;;;5110662;28;20242;-79
2023/07/14 04:49:04;;;;;;;17.10;9.23;;;;;;;;;;5096824;28;20331;-79
2023/07/14 04:51:32;;;;;;;11.87;8.90;;;;;;;;;;5109798;28;20306;-78
2023/07/14 04:53:59;;;;;;;11.83;8.57;;;;;;;;;;5110178;28;20670;-78
2023/07/14 04:56:26;;;;;;;16.00;8.70;;;;;;;;;;5110664;28;20200;-78
2023/07/14 04:58:53;;;;;;;12.43;8.80;;;;;;;;;;5093233;28;20214;-78
2023/07/14 05:01:20;;;;;;;9.73;8.90;;;;;;;;;;5090777;28;20582;-78
2023/07/14 05:03:47;;;;;;;11.90;8.90;;;;;;;;;;5094563;28;20203;-78
2023/07/14 05:06:15;;;;;;;12.13;8.53;;;;;;;;;;5111205;28;20203;-78
2023/07/14 05:08:43;;;;;;;11.63;8.67;;;;;;;;;;5092877;28;20204;-78
2023/07/14 05:11:10;;;;;;;11.37;8.90;;;;;;;;;;5090234;28;20255;-78
2023/07/14 05:13:37;;;;;;;10.23;8.40;;;;;;;;;;5104172;28;20200;-78
2023/07/14 05:16:04;;;;;;;15.00;8.53;;;;;;;;;;5091152;28;20575;-78
2023/07/14 05:18:31;;;;;;;10.07;8.93;;;;;;;;;;5095632;28;20203;-79
2023/07/14 05:20:59;;;;;;;15.23;8.65;;;;;;;;;;5110947;28;20207;-79
2023/07/14 05:23:27;;;;;;;12.70;9.73;;;;;;;;;;5110735;28;20192;-80
2023/07/14 05:25:54;;;;;;;9.73;8.30;;;;;;;;;;5098246;28;20205;-78
2023/07/14 05:28:21;;;;;;;15.77;8.45;;;;;;;;;;5098406;28;20253;-78
2023/07/14 05:30:48;;;;;;;10.75;8.32;;;;;;;;;;5109033;28;20220;-79
2023/07/14 05:33:16;;;;;;;10.80;8.43;;;;;;;;;;5110477;28;20285;-78
2023/07/14 05:35:43;;;;;;;8.40;6.85;;;;;;;;;;5110626;28;20204;-78
2023/07/14 05:38:09;;;;;;;11.73;7.72;;;;;;;;;;5097668;28;20208;-79
2023/07/14 05:40:38;;;;;;;18.50;8.23;;;;;;;;;;5090425;28;20283;-79
2023/07/14 05:43:04;;;;;;;11.00;7.50;;;;;;;;;;5089949;28;20211;-79
2023/07/14 05:45:31;;;;;;;9.50;7.13;;;;;;;;;;5103893;28;20203;-78
2023/07/14 05:47:58;;;;;;;10.98;7.32;;;;;;;;;;5103008;28;20200;-80
2023/07/14 05:50:25;;;;;;;10.95;7.43;;;;;;;;;;5103869;28;20250;-78
2023/07/14 05:52:52;;;;;;;8.20;6.95;;;;;;;;;;5106155;28;20207;-79
2023/07/14 05:55:19;;;;;;;10.40;7.40;;;;;;;;;;5093901;28;20200;-79
2023/07/14 05:57:47;;;;;;;12.40;8.13;;;;;;;;;;5107930;28;20200;-78
2023/07/14 06:00:16;;;;;;;9.27;7.60;;;;;;;;;;5108539;28;20593;-79
2023/07/14 06:02:44;;;;;;;11.75;8.63;;;;;;;;;;5093410;28;20674;-78
2023/07/14 06:05:12;;;;;;;12.68;9.02;;;;;;;;;;5102024;28;20204;-79
2023/07/14 06:07:40;;;;;;;10.60;7.65;;;;;;;;;;5099826;28;20200;-79
2023/07/14 06:10:07;;;;;;;9.05;8.00;;;;;;;;;;5114019;28;20302;-79
2023/07/14 06:12:34;;;;;;;13.98;9.20;;;;;;;;;;5100176;28;20212;-78
2023/07/14 06:15:03;;;;;;;12.38;8.80;;;;;;;;;;5104995;28;20209;-79
2023/07/14 06:17:30;;;;;;;13.35;8.95;;;;;;;;;;5108954;28;20215;-79
2023/07/14 06:19:56;;;;;;;13.20;8.15;;;;;;;;;;5105101;28;20200;-79
2023/07/14 06:22:23;;;;;;;13.57;9.18;;;;;;;;;;5108922;28;20712;-78
2023/07/14 06:24:50;;;;;;;11.35;9.27;;;;;;;;;;5113837;28;20219;-78
2023/07/14 06:27:18;;;;;;;8.98;8.07;;;;;;;;;;5099787;28;21218;-79
2023/07/14 06:29:45;;;;;;;12.43;8.40;;;;;;;;;;5112986;28;20626;-78
2023/07/14 06:32:15;;;;;;;9.98;7.95;;;;;;;;;;5113266;28;20212;-78
2023/07/14 06:34:42;;;;;;;16.52;9.10;;;;;;;;;;5113487;28;20681;-79
2023/07/14 06:37:09;;;;;;;15.18;9.43;;;;;;;;;;5112915;28;20195;-78
2023/07/14 06:39:36;;;;;;;11.45;7.63;;;;;;;;;;5101894;28;20208;-79
2023/07/14 06:42:03;;;;;;;9.25;7.70;;;;;;;;;;5097706;28;20297;-79
2023/07/14 06:44:30;;;;;;;15.85;7.10;;;;;;;;;;5113451;28;20291;-78
2023/07/14 06:46:57;;;;;;;10.52;8.00;;;;;;;;;;5094869;28;20192;-78
2023/07/14 06:49:25;;;;;;;12.35;8.52;;;;;;;;;;5104411;28;20231;-79
2023/07/14 06:51:52;;;;;;;10.30;6.90;;;;;;;;;;5112501;28;20705;-78
2023/07/14 06:54:18;;;;;;;11.52;8.32;;;;;;;;;;5101541;28;20200;-78
2023/07/14 06:56:45;;;;;;;11.15;8.57;;;;;;;;;;5097447;28;20207;-79
2023/07/14 06:59:12;;;;;;;10.68;8.25;;;;;;;;;;5100829;28;20205;-79
2023/07/14 07:01:39;;;;;;;11.68;8.35;;;;;;;;;;5098230;28;20602;-78
2023/07/14 07:04:06;;;;;;;11.25;9.00;;;;;;;;;;5111368;28;20207;-79
2023/07/14 07:06:34;;;;;;;10.07;8.65;;;;;;;;;;5099392;28;20278;-80
2023/07/14 07:09:01;;;;;;;11.27;8.05;;;;;;;;;;5100186;28;20204;-79
2023/07/14 07:11:28;;;;;;;11.13;8.50;;;;;;;;;;5098651;28;20219;-79
2023/07/14 07:13:55;;;;;;;21.48;9.88;;;;;;;;;;5099444;28;20196;-80
2023/07/14 07:16:22;;;;;;;16.50;9.15;;;;;;;;;;5098905;28;20195;-79
2023/07/14 07:18:49;;;;;;;12.00;9.15;;;;;;;;;;5098815;28;20207;-79
2023/07/14 07:21:15;;;;;;;11.40;9.50;;;;;;;;;;5105345;28;20702;-79
2023/07/14 07:23:43;;;;;;;12.77;8.82;;;;;;;;;;5105343;28;20746;-79
2023/07/14 07:26:10;;;;;;;12.38;10.18;;;;;;;;;;5092005;28;20673;-79
2023/07/14 07:28:37;;;;;;;11.57;9.70;;;;;;;;;;5092763;28;20219;-78
2023/07/14 07:31:09;;;;;;;13.77;12.38;;;;;;;;;;5099471;28;20233;-79
2023/07/14 07:33:37;;;;;;;15.00;11.52;;;;;;;;;;5097135;28;20653;-79
2023/07/14 07:36:14;;;;;;;12.15;10.05;;;;;;;;;;5100834;28;20226;-80
2023/07/14 07:38:45;;;;;;;12.90;10.57;;;;;;;;;;5098573;28;20230;-79
2023/07/14 07:41:12;;;;;;;14.98;10.90;;;;;;;;;;5100925;28;20215;-80
2023/07/14 07:43:39;;;;;;;16.20;12.23;;;;;;;;;;5092269;28;20200;-79
2023/07/14 07:46:06;;;;;;;13.77;12.27;;;;;;;;;;5091629;28;20196;-79
2023/07/14 07:48:33;;;;;;;20.38;11.60;;;;;;;;;;5105038;28;20665;-78
2023/07/14 07:51:00;;;;;;;15.18;12.18;;;;;;;;;;5091590;28;20842;-78
2023/07/14 07:53:26;;;;;;;15.82;11.77;;;;;;;;;;5091257;28;20201;-78
2023/07/14 07:55:56;;;;;;;15.85;11.68;;;;;;;;;;5104034;28;20581;-78
2023/07/14 07:58:25;;;;;;;13.63;11.35;;;;;;;;;;5105536;28;20205;-78
2023/07/14 08:00:52;;;;;;;12.15;11.05;;;;;;;;;;5091458;28;20235;-78
2023/07/14 08:03:19;;;;;;;14.23;11.70;;;;;;;;;;5110927;28;20260;-79
2023/07/14 08:05:47;;;;;;;17.40;10.75;;;;;;;;;;5111692;28;20221;-80
2023/07/14 08:08:13;;;;;;;13.50;10.20;;;;;;;;;;5104482;28;20200;-79
2023/07/14 08:10:42;;;;;;;13.65;11.48;;;;;;;;;;5091690;28;20227;-79
2023/07/14 08:13:11;;;;;;;22.25;11.57;;;;;;;;;;5111309;28;20633;-78
2023/07/14 08:15:38;;;;;;;13.98;12.40;;;;;;;;;;5110830;28;20210;-79
2023/07/14 08:18:06;;;;;;;15.55;11.50;;;;;;;;;;5091375;28;20200;-79
2023/07/14 08:20:33;;;;;;;18.17;12.13;;;;;;;;;;5106017;28;20207;-79
2023/07/14 08:23:02;;;;;;;13.45;11.10;;;;;;;;;;5103437;28;20201;-78
2023/07/14 08:25:29;;;;;;;18.20;11.13;;;;;;;;;;5104769;28;20256;-79
2023/07/14 08:27:56;;;;;;;17.50;11.13;;;;;;;;;;5091762;28;20204;-78
2023/07/14 08:30:24;;;;;;;16.23;10.70;;;;;;;;;;5105867;28;20195;-79
2023/07/14 08:32:51;;;;;;;14.73;10.50;;;;;;;;;;5102583;28;20208;-79
2023/07/14 08:35:18;;;;;;;17.10;11.15;;;;;;;;;;5104766;28;20203;-79
2023/07/14 08:37:45;;;;;;;12.70;11.15;;;;;;;;;;5099041;28;20202;-79
2023/07/14 08:40:14;;;;;;;12.43;10.20;;;;;;;;;;5109264;28;20207;-79
2023/07/14 08:42:46;;;;;;;10.82;9.73;;;;;;;;;;5099497;28;20207;-79
2023/07/14 08:45:27;;;;;;;11.68;10.20;;;;;;;;;;5094556;28;20207;-79
2023/07/14 08:48:00;;;;;;;11.68;10.52;;;;;;;;;;5090407;28;20234;-78
2023/07/14 08:50:29;;;;;;;17.80;10.88;;;;;;;;;;5097626;28;20656;-79
2023/07/14 08:53:02;;;;;;;12.50;10.63;;;;;;;;;;5110475;28;20678;-79
2023/07/14 08:55:34;;;;;;;17.65;11.88;;;;;;;;;;5098792;28;20696;-79
2023/07/14 08:58:05;;;;;;;14.15;10.70;;;;;;;;;;5096998;28;20277;-79
2023/07/14 09:00:37;;;;;;;15.55;10.43;;;;;;;;;;5101753;28;20196;-79
2023/07/14 09:03:09;;;;;;;13.18;10.82;;;;;;;;;;5107865;28;20278;-79
2023/07/14 09:05:39;;;;;;;14.38;11.23;;;;;;;;;;5099775;28;20204;-78
2023/07/14 09:08:09;;;;;;;12.20;10.95;;;;;;;;;;5095158;28;20198;-79
2023/07/14 09:10:45;;;;;;;11.85;10.75;;;;;;;;;;5099148;28;20208;-78
2023/07/14 09:13:17;;;;;;;12.82;11.10;;;;;;;;;;5097273;28;20226;-79
2023/07/14 09:15:45;;;;;;;12.13;10.95;;;;;;;;;;5111172;28;20215;-79
2023/07/14 09:18:28;;;;;;;12.65;11.07;;;;;;;;;;5110999;28;20207;-80
2023/07/14 09:21:09;;;;;;;11.77;10.52;;;;;;;;;;5093318;28;20212;-79
2023/07/14 09:23:59;;;;;;;11.85;10.65;;;;;;;;;;5103098;28;20211;-79
2023/07/14 09:26:31;;;;;;;12.88;11.25;;;;;;;;;;5092606;28;20208;-79
2023/07/14 09:28:58;;;;;;;16.48;10.55;;;;;;;;;;5108303;28;20666;-79
2023/07/14 09:31:37;;;;;;;15.60;10.73;;;;;;;;;;5094309;28;20578;-79
2023/07/14 09:34:10;;;;;;;13.23;10.15;;;;;;;;;;5112963;28;20677;-79
2023/07/14 09:36:38;;;;;;;16.85;12.40;;;;;;;;;;5114895;28;20199;-79
2023/07/14 09:39:07;;;;;;;13.98;10.13;;;;;;;;;;5100707;28;20230;-79
2023/07/14 09:41:35;;;;;;;12.70;11.45;;;;;;;;;;5100548;28;20261;-79
2023/07/14 09:44:02;;;;;;;19.55;11.77;;;;;;;;;;5113953;28;20290;-79
2023/07/14 09:46:37;;;;;;;14.20;10.38;;;;;;;;;;5114355;28;20692;-79
2023/07/14 09:49:12;;;;;;;13.63;10.88;;;;;;;;;;5105187;28;20231;-79
2023/07/14 09:51:40;;;;;;;12.30;10.32;;;;;;;;;;5107773;28;20224;-79
2023/07/14 09:54:10;;;;;;;12.02;10.50;;;;;;;;;;5093852;28;20706;-79
2023/07/14 09:56:42;;;;;;;14.57;10.20;;;;;;;;;;5111474;28;20195;-79
2023/07/14 09:59:24;;;;;;;13.05;11.02;;;;;;;;;;5114181;28;20211;-79
2023/07/14 10:01:54;;;;;;;11.38;10.27;;;;;;;;;;5114336;28;20203;-79
2023/07/14 10:04:27;;;;;;;13.88;11.00;;;;;;;;;;5114839;28;20203;-79
2023/07/14 10:06:54;;;;;;;12.73;11.32;;;;;;;;;;5114305;28;20214;-79
2023/07/14 10:09:23;;;;;;;11.68;10.52;;;;;;;;;;5097027;28;20698;-79
2023/07/14 10:11:52;;;;;;;13.52;10.63;;;;;;;;;;5093933;28;20246;-79
2023/07/14 10:14:25;;;;;;;12.40;10.95;;;;;;;;;;5093508;28;20638;-79
2023/07/14 10:16:54;;;;;;;14.55;9.77;;;;;;;;;;5104842;28;20199;-79
2023/07/14 10:19:23;;;;;;;12.40;10.68;;;;;;;;;;5100089;28;20260;-79
2023/07/14 10:21:53;;;;;;;14.60;10.00;;;;;;;;;;5113740;28;20233;-79
2023/07/14 10:24:20;;;;;;;10.93;9.50;;;;;;;;;;5099939;28;20214;-79
2023/07/14 10:26:52;;;;;;;12.18;10.38;;;;;;;;;;5100602;28;20709;-79
2023/07/14 10:29:20;;;;;;;15.05;10.52;;;;;;;;;;5112886;28;20199;-79
2023/07/14 10:31:51;;;;;;;22.90;11.45;;;;;;;;;;5113451;28;20223;-79
2023/07/14 10:34:45;;;;;;;16.88;11.30;;;;;;;;;;5113365;28;20234;-79
2023/07/14 10:37:21;;;;;;;13.68;11.00;;;;;;;;;;5096021;28;20588;-79
2023/07/14 10:39:52;;;;;;;11.73;10.05;;;;;;;;;;5100800;28;20241;-79
2023/07/14 10:42:22;;;;;;;12.32;10.23;;;;;;;;;;5099033;28;20210;-79
2023/07/14 10:44:49;;;;;;;12.95;10.07;;;;;;;;;;5113124;28;20199;-79
2023/07/14 10:47:19;;;;;;;12.18;10.55;;;;;;;;;;5100209;28;20203;-79
2023/07/14 10:49:54;;;;;;;18.38;10.10;;;;;;;;;;5099412;28;20306;-79
2023/07/14 10:52:25;;;;;;;12.88;10.50;;;;;;;;;;5113065;28;20279;-79
2023/07/14 10:54:54;;;;;;;15.93;10.43;;;;;;;;;;5099111;28;20198;-80
2023/07/14 10:57:36;;;;;;;17.17;11.60;;;;;;;;;;5102218;28;20257;-80
2023/07/14 11:00:15;;;;;;;24.08;10.07;;;;;;;;;;5092637;28;20589;-79
2023/07/14 11:02:44;;;;;;;16.35;11.85;;;;;;;;;;5106705;28;20203;-79
2023/07/14 11:05:16;;;;;;;23.83;11.30;;;;;;;;;;5092558;28;20200;-79
2023/07/14 11:07:43;;;;;;;13.57;11.25;;;;;;;;;;5105737;28;20701;-79
2023/07/14 11:10:14;;;;;;;19.60;12.25;;;;;;;;;;5102539;28;20196;-80
2023/07/14 11:12:47;;;;;;;34.55;11.43;;;;;;;;;;5108382;28;20228;-80
2023/07/14 11:15:22;;;;;;;17.88;10.50;;;;;;;;;;5092503;28;20204;-79
2023/07/14 11:17:54;;;;;;;12.82;10.57;;;;;;;;;;5098124;28;20637;-79
2023/07/14 11:20:28;;;;;;;17.85;11.23;;;;;;;;;;5112126;28;20206;-77
2023/07/14 11:23:04;;;;;;;25.85;12.13;;;;;;;;;;5091800;28;20208;-76
2023/07/14 11:25:38;;;;;;;18.90;10.73;;;;;;;;;;5095188;28;20203;-76
2023/07/14 11:28:17;;;;;;;15.45;11.30;;;;;;;;;;5110964;28;20204;-76
2023/07/14 11:30:47;;;;;;;18.73;11.20;;;;;;;;;;5107775;28;20204;-76
2023/07/14 11:33:20;;;;;;;12.20;10.18;;;;;;;;;;5103576;28;20230;-76
2023/07/14 11:35:53;;;;;;;12.50;11.38;;;;;;;;;;5112590;28;20282;-77
2023/07/14 11:38:32;;;;;;;12.07;10.85;;;;;;;;;;5097787;28;20200;-77
2023/07/14 11:41:00;;;;;;;12.02;10.02;;;;;;;;;;5091925;28;20196;-76
2023/07/14 11:43:29;;;;;;;12.27;11.07;;;;;;;;;;5091593;28;20204;-76
2023/07/14 11:45:59;;;;;;;18.00;11.45;;;;;;;;;;5101639;28;20192;-76
2023/07/14 11:48:34;;;;;;;12.70;10.55;;;;;;;;;;5111751;28;20210;-76
2023/07/14 11:51:08;;;;;;;11.55;10.48;;;;;;;;;;5111740;28;20276;-76
2023/07/14 11:53:36;;;;;;;13.07;11.65;;;;;;;;;;5111777;28;20253;-76
2023/07/14 11:56:18;;;;;;;13.63;10.88;;;;;;;;;;5111918;28;20238;-77
2023/07/14 11:58:45;;;;;;;13.23;10.73;;;;;;;;;;5099964;28;20199;-76
2023/07/14 12:01:17;;;;;;;15.25;10.60;;;;;;;;;;5111962;28;20207;-77
2023/07/14 12:03:49;;;;;;;15.02;10.57;;;;;;;;;;5101721;28;20231;-76
2023/07/14 12:06:28;;;;;;;12.85;11.05;;;;;;;;;;5104912;28;20197;-77
2023/07/14 12:09:11;;;;;;;17.75;10.75;;;;;;;;;;5090891;28;20200;-77
2023/07/14 12:11:50;;;;;;;15.18;11.18;;;;;;;;;;5099729;28;20203;-76
2023/07/14 12:14:29;;;;;;;19.75;10.93;;;;;;;;;;5094550;28;20204;-79
2023/07/14 12:16:56;;;;;;;13.88;10.25;;;;;;;;;;5103041;28;20203;-76
2023/07/14 12:19:26;;;;;;;15.60;11.00;;;;;;;;;;5097759;28;20688;-76
2023/07/14 12:22:03;;;;;;;11.20;10.18;;;;;;;;;;5098507;28;20235;-76
2023/07/14 12:24:32;;;;;;;15.57;9.95;;;;;;;;;;5091043;28;20275;-76
2023/07/14 12:27:19;;;;;;;11.85;10.65;;;;;;;;;;5105203;28;20306;-77
2023/07/14 12:29:50;;;;;;;12.60;10.10;;;;;;;;;;5091163;28;20197;-76
2023/07/14 12:32:19;;;;;;;10.93;9.93;;;;;;;;;;5104169;28;20220;-77
2023/07/14 12:34:46;;;;;;;11.27;10.23;;;;;;;;;;5103012;28;20670;-76
2023/07/14 12:37:17;;;;;;;14.00;10.85;;;;;;;;;;5106119;28;20220;-76
2023/07/14 12:39:48;;;;;;;14.25;11.55;;;;;;;;;;5103733;28;20211;-76
2023/07/14 12:42:16;;;;;;;13.25;9.60;;;;;;;;;;5097357;28;20202;-76
2023/07/14 12:44:42;;;;;;;11.13;9.65;;;;;;;;;;5098284;28;20206;-76
2023/07/14 12:47:15;;;;;;;15.38;10.00;;;;;;;;;;5104154;28;20200;-76
2023/07/14 12:49:45;;;;;;;10.43;9.15;;;;;;;;;;5104295;28;20223;-76
2023/07/14 12:52:14;;;;;;;11.25;10.05;;;;;;;;;;5098853;28;20219;-77
2023/07/14 12:54:45;;;;;;;11.23;10.07;;;;;;;;;;5095226;28;20204;-76
2023/07/14 12:57:14;;;;;;;12.75;9.63;;;;;;;;;;5090661;28;20204;-76
2023/07/14 12:59:41;;;;;;;10.85;9.23;;;;;;;;;;5107621;28;20204;-76
2023/07/14 13:02:12;;;;;;;10.85;9.85;;;;;;;;;;5102427;28;20204;-77
2023/07/14 13:04:39;;;;;;;11.55;9.95;;;;;;;;;;5112250;28;20231;-76
2023/07/14 13:07:09;;;;;;;12.13;10.25;;;;;;;;;;5114768;28;20210;-77
2023/07/14 13:09:37;;;;;;;10.63;9.45;;;;;;;;;;5101510;28;20290;-77
2023/07/14 13:12:06;;;;;;;10.93;9.80;;;;;;;;;;5103169;28;20204;-78
2023/07/14 13:14:38;;;;;;;11.05;9.95;;;;;;;;;;5108152;28;20582;-77
2023/07/14 13:17:05;;;;;;;12.65;11.05;;;;;;;;;;5107850;28;20696;-77
2023/07/14 13:19:35;;;;;;;13.90;10.55;;;;;;;;;;5108129;28;20202;-77
2023/07/14 13:22:04;;;;;;;13.40;11.10;;;;;;;;;;5094383;28;20697;-77
2023/07/14 13:24:33;;;;;;;11.88;10.82;;;;;;;;;;5094853;28;20211;-77
2023/07/14 13:27:01;;;;;;;10.82;9.82;;;;;;;;;;5095657;28;20204;-77
2023/07/14 13:29:34;;;;;;;13.38;10.95;;;;;;;;;;5101532;28;20217;-76
2023/07/14 13:32:02;;;;;;;10.38;9.35;;;;;;;;;;5101150;28;20207;-77
2023/07/14 13:34:31;;;;;;;11.30;10.30;;;;;;;;;;5105812;28;20193;-77
2023/07/14 13:37:00;;;;;;;14.10;10.35;;;;;;;;;;5096293;28;20228;-77
2023/07/14 13:39:29;;;;;;;11.30;9.93;;;;;;;;;;5114295;28;20195;-76
2023/07/14 13:41:58;;;;;;;10.98;9.88;;;;;;;;;;5114760;28;20644;-77
2023/07/14 13:44:36;;;;;;;11.45;10.25;;;;;;;;;;5103583;28;20235;-77
2023/07/14 13:47:11;;;;;;;15.23;9.20;;;;;;;;;;5099365;28;20252;-77
2023/07/14 13:49:38;;;;;;;15.85;9.95;;;;;;;;;;5114172;28;20227;-76
2023/07/14 13:52:11;;;;;;;10.30;9.27;;;;;;;;;;5114564;28;20199;-76
2023/07/14 13:54:40;;;;;;;14.57;9.57;;;;;;;;;;5112951;28;20199;-76
2023/07/14 13:57:10;;;;;;;12.50;9.75;;;;;;;;;;5103034;28;20203;-76
2023/07/14 13:59:39;;;;;;;12.80;10.63;;;;;;;;;;5100185;28;20261;-76
2023/07/14 14:02:20;;;;;;;13.13;10.55;;;;;;;;;;5104402;28;20212;-76
2023/07/14 14:04:46;;;;;;;10.60;9.50;;;;;;;;;;5107112;28;20609;-76
2023/07/14 14:07:13;;;;;;;11.32;9.82;;;;;;;;;;5105006;28;20203;-77
2023/07/14 14:09:40;;;;;;;12.48;9.45;;;;;;;;;;5113128;28;20211;-77
2023/07/14 14:12:08;;;;;;;12.93;10.13;;;;;;;;;;5113446;28;20196;-76
2023/07/14 14:14:35;;;;;;;15.02;9.25;;;;;;;;;;5108506;28;20243;-76
2023/07/14 14:17:03;;;;;;;13.55;9.07;;;;;;;;;;5093746;28;20210;-77
2023/07/14 14:19:30;;;;;;;11.40;8.98;;;;;;;;;;5099166;28;20204;-77
2023/07/14 14:21:59;;;;;;;13.77;8.80;;;;;;;;;;5100860;28;20211;-77
2023/07/14 14:24:26;;;;;;;13.10;8.75;;;;;;;;;;5099541;28;20709;-77
2023/07/14 14:26:53;;;;;;;10.40;9.40;;;;;;;;;;5100434;28;20200;-79
2023/07/14 14:29:20;;;;;;;18.67;9.50;;;;;;;;;;5099605;28;20663;-77
2023/07/14 14:31:47;;;;;;;12.85;9.05;;;;;;;;;;5113467;28;20229;-77
2023/07/14 14:34:17;;;;;;;10.48;9.38;;;;;;;;;;5100254;28;20226;-76
2023/07/14 14:36:45;;;;;;;10.38;8.80;;;;;;;;;;5099245;28;20322;-76